Time;durP1;ratioP1;P1;durP2;ratioP2;P2;SDS_P1;SDS_P2;PMS_P1;PMS_P2;Temp;Humidity;BMP_temperature;BMP_pressure;BME280_temperature;BME280_humidity;BME280_pressure;Samples;Min_cycle;Max_cycle;Signal;HPM_P1;HPM_P2
2022/05/08 00:02:10;;;;;;;5.57;2.17;;;;;;;12.73;77.30;101090.16;5157818;27;20030;-77
2022/05/08 00:04:35;;;;;;;6.45;2.42;;;;;;;12.68;77.54;101082.66;5158180;27;20027;-78
2022/05/08 00:07:00;;;;;;;4.63;1.93;;;;;;;12.69;77.60;101087.03;5139028;27;20460;-77
2022/05/08 00:09:26;;;;;;;4.40;1.93;;;;;;;12.68;76.97;101087.22;5158503;27;20293;-78
2022/05/08 00:11:52;;;;;;;4.28;2.00;;;;;;;12.64;76.51;101085.97;5158594;27;20078;-78
2022/05/08 00:14:18;;;;;;;5.63;2.10;;;;;;;12.62;77.12;101086.16;5156856;27;20449;-77
2022/05/08 00:16:43;;;;;;;6.88;2.55;;;;;;;12.59;77.02;101080.31;5157772;27;20035;-77
2022/05/08 00:19:08;;;;;;;4.47;1.90;;;;;;;12.53;76.76;101076.56;5139714;27;20038;-77
2022/05/08 00:21:34;;;;;;;5.17;2.13;;;;;;;12.58;76.13;101081.34;5157510;27;20022;-77
2022/05/08 00:23:59;;;;;;;4.55;1.98;;;;;;;12.47;76.06;101086.31;5157301;27;20034;-77
2022/05/08 00:26:24;;;;;;;4.87;2.23;;;;;;;12.46;75.74;101083.81;5157649;27;20114;-78
2022/05/08 00:28:50;;;;;;;5.17;2.10;;;;;;;12.42;76.09;101077.97;5157089;27;20035;-77
2022/05/08 00:31:15;;;;;;;6.30;2.08;;;;;;;12.45;75.39;101084.84;5157810;27;20330;-77
2022/05/08 00:33:41;;;;;;;5.77;1.60;;;;;;;12.43;76.04;101081.50;5156705;27;20026;-77
2022/05/08 00:36:07;;;;;;;5.75;1.90;;;;;;;12.26;75.94;101070.19;5157688;27;20257;-79
2022/05/08 00:38:32;;;;;;;5.25;2.03;;;;;;;12.15;75.84;101081.56;5157937;27;20023;-78
2022/05/08 00:40:57;;;;;;;5.33;2.13;;;;;;;12.11;76.22;101083.84;5157377;27;20022;-77
2022/05/08 00:43:34;;;;;;;5.97;2.03;;;;;;;12.09;75.86;101082.38;5157313;27;20252;-77
2022/05/08 00:46:04;;;;;;;8.40;1.90;;;;;;;12.03;76.09;101072.34;5157403;27;20026;-77
2022/05/08 00:48:30;;;;;;;4.47;1.80;;;;;;;12.00;76.23;101078.16;5138409;27;20038;-77
2022/05/08 00:50:56;;;;;;;4.80;1.70;;;;;;;11.94;75.85;101076.25;5156979;27;20033;-77
2022/05/08 00:53:24;;;;;;;5.97;2.72;;;;;;;11.93;76.52;101071.88;5156485;27;20422;-77
2022/05/08 00:55:49;;;;;;;5.55;2.22;;;;;;;11.86;76.20;101077.22;5157078;27;20034;-77
2022/05/08 00:58:16;;;;;;;5.00;2.45;;;;;;;11.85;76.14;101077.41;5138198;27;20393;-77
2022/05/08 01:00:41;;;;;;;6.55;2.30;;;;;;;11.81;76.25;101079.69;5156478;27;20101;-77
2022/05/08 01:03:06;;;;;;;4.53;2.22;;;;;;;11.80;76.28;101086.97;5138340;27;20134;-78
2022/05/08 01:05:32;;;;;;;6.03;2.38;;;;;;;11.69;76.80;101083.91;5157018;27;20448;-78
2022/05/08 01:07:57;;;;;;;4.60;2.10;;;;;;;11.66;76.90;101084.31;5156439;27;20027;-77
2022/05/08 01:10:22;;;;;;;6.45;2.58;;;;;;;11.62;77.01;101085.75;5156518;27;20029;-78
2022/05/08 01:12:48;;;;;;;6.20;2.60;;;;;;;11.63;77.29;101087.41;5156267;27;20034;-77
2022/05/08 01:15:16;;;;;;;7.03;2.90;;;;;;;11.66;77.28;101090.53;5156545;27;20034;-78
2022/05/08 01:17:41;;;;;;;6.25;2.00;;;;;;;11.58;77.23;101087.16;5156452;27;20082;-77
2022/05/08 01:20:07;;;;;;;5.50;2.20;;;;;;;11.60;77.67;101085.09;5156340;27;20101;-77
2022/05/08 01:22:32;;;;;;;6.03;2.03;;;;;;;11.67;77.35;101085.97;5137797;27;20143;-77
2022/05/08 01:25:00;;;;;;;6.13;2.73;;;;;;;11.59;76.90;101089.66;5156304;27;20030;-78
2022/05/08 01:27:25;;;;;;;7.47;3.53;;;;;;;11.60;77.17;101087.81;5156004;27;20272;-78
2022/05/08 01:29:50;;;;;;;6.40;2.50;;;;;;;11.56;77.72;101091.91;5156319;27;20023;-77
2022/05/08 01:32:16;;;;;;;6.00;2.77;;;;;;;11.56;77.16;101089.22;5156572;27;20054;-77
2022/05/08 01:34:41;;;;;;;5.85;2.72;;;;;;;11.58;76.96;101092.56;5156314;27;20023;-77
2022/05/08 01:37:06;;;;;;;6.47;2.83;;;;;;;11.56;77.24;101105.41;5158056;27;20453;-78
2022/05/08 01:39:32;;;;;;;6.63;2.90;;;;;;;11.51;77.41;101102.47;5156987;27;20030;-78
2022/05/08 01:41:58;;;;;;;5.57;2.65;;;;;;;11.45;77.05;101094.13;5157433;27;20033;-78
2022/05/08 01:44:24;;;;;;;6.60;2.92;;;;;;;11.36;77.68;101094.44;5157172;27;20397;-77
2022/05/08 01:48:21;;;;;;;10.70;3.00;;;;;;;11.33;77.91;101095.66;5139709;27;20045;-78
2022/05/08 01:49:35;;;;;;;6.78;2.85;;;;;;;11.28;77.95;101097.28;5158047;27;20107;-77
2022/05/08 01:52:00;;;;;;;9.38;2.45;;;;;;;11.27;78.03;101095.63;5139435;27;20031;-77
2022/05/08 01:54:25;;;;;;;13.27;2.80;;;;;;;11.29;78.17;101099.75;5156304;27;20027;-77
2022/05/08 01:56:51;;;;;;;6.10;2.57;;;;;;;11.17;78.14;101103.19;5156651;27;20284;-78
2022/05/08 01:59:16;;;;;;;10.05;3.90;;;;;;;11.09;78.35;101099.59;5156714;27;20025;-77
2022/05/08 02:01:43;;;;;;;8.10;3.05;;;;;;;11.06;77.74;101107.22;5157135;27;20033;-79
2022/05/08 02:04:15;;;;;;;6.88;2.83;;;;;;;11.01;79.20;101102.41;5157525;27;20035;-77
2022/05/08 02:06:41;;;;;;;7.00;3.30;;;;;;;11.01;79.07;101105.09;5138310;27;20029;-77
2022/05/08 02:09:06;;;;;;;9.48;3.13;;;;;;;10.97;78.96;101106.50;5156762;27;20376;-77
2022/05/08 02:11:31;;;;;;;8.90;3.17;;;;;;;10.89;79.83;101106.63;5156355;27;20117;-77
2022/05/08 02:13:58;;;;;;;10.13;3.90;;;;;;;10.89;79.53;101111.19;5156113;27;20035;-78
2022/05/08 02:16:24;;;;;;;8.32;3.47;;;;;;;10.86;79.85;101116.94;5137961;27;20027;-77
2022/05/08 02:18:50;;;;;;;6.65;3.10;;;;;;;10.77;80.20;101118.91;5156597;27;20060;-77
2022/05/08 02:21:15;;;;;;;12.13;4.25;;;;;;;10.76;81.02;101118.06;5156317;27;20034;-77
2022/05/08 02:23:40;;;;;;;10.48;3.33;;;;;;;10.75;81.23;101123.66;5157815;27;20027;-77
2022/05/08 02:26:06;;;;;;;8.93;3.40;;;;;;;10.73;81.65;101121.16;5158687;27;20057;-78
2022/05/08 02:28:31;;;;;;;11.47;4.30;;;;;;;10.70;81.61;101120.72;5157691;27;20343;-77
2022/05/08 02:30:57;;;;;;;9.23;3.65;;;;;;;10.69;81.91;101125.25;5157598;27;20027;-77
2022/05/08 02:33:22;;;;;;;9.85;4.03;;;;;;;10.78;81.88;101126.81;5156984;27;20050;-78
2022/05/08 02:35:47;;;;;;;11.73;4.28;;;;;;;10.63;82.42;101126.00;5157195;27;20023;-77
2022/05/08 02:38:13;;;;;;;8.87;4.37;;;;;;;10.56;82.66;101129.66;5161761;27;20030;-77
2022/05/08 02:40:38;;;;;;;10.27;4.23;;;;;;;10.47;83.12;101126.22;5161805;27;20026;-78
2022/05/08 02:43:03;;;;;;;13.83;5.27;;;;;;;10.51;83.36;101132.06;5143705;27;20309;-78
2022/05/08 02:45:29;;;;;;;10.52;4.47;;;;;;;10.43;83.21;101130.28;5160564;27;20068;-77
2022/05/08 02:47:54;;;;;;;12.67;4.70;;;;;;;10.50;83.32;101130.41;5161918;27;20023;-78
2022/05/08 02:50:20;;;;;;;10.57;4.70;;;;;;;10.43;84.20;101141.06;5161507;27;20434;-77
2022/05/08 02:52:45;;;;;;;9.07;4.55;;;;;;;10.38;83.83;101138.13;5160587;27;20117;-77
2022/05/08 03:00:42;;;;;;;9.65;4.93;;;;;;;10.37;83.69;101136.44;5159633;27;20079;-77
2022/05/08 03:03:09;;;;;;;10.63;5.05;;;;;;;10.37;83.30;101129.19;5141845;27;20026;-77
2022/05/08 03:05:35;;;;;;;13.60;4.70;;;;;;;10.41;83.11;101137.72;5160126;27;20022;-77
2022/05/08 03:08:02;;;;;;;12.43;5.32;;;;;;;10.33;83.33;101135.97;5159471;27;20073;-77
2022/05/08 03:10:28;;;;;;;9.93;5.15;;;;;;;10.31;83.31;101140.72;5141378;27;20041;-78
2022/05/08 03:12:54;;;;;;;13.48;5.53;;;;;;;10.34;82.91;101136.81;5159156;27;20027;-77
2022/05/08 03:15:19;;;;;;;;;;;;;;;10.20;82.34;101129.56;5159993;27;20035;-77
2022/05/08 03:17:44;;;;;;;12.60;5.07;;;;;;;10.11;82.64;101134.16;5159340;27;19963;-75
2022/05/08 03:20:12;;;;;;;14.40;5.33;;;;;;;10.15;82.21;101132.78;5159766;27;20023;-76
2022/05/08 03:22:38;;;;;;;12.95;5.20;;;;;;;10.07;81.45;101131.00;5158416;27;20248;-76
2022/05/08 03:25:03;;;;;;;12.30;4.77;;;;;;;9.94;81.18;101133.50;5140138;27;20541;-76
2022/05/08 03:27:30;;;;;;;12.48;4.63;;;;;;;9.85;80.45;101133.78;5158820;27;20042;-76
2022/05/08 03:29:56;;;;;;;10.52;4.75;;;;;;;9.77;80.09;101133.84;5158451;27;20457;-75
2022/05/08 03:32:21;;;;;;;13.38;4.75;;;;;;;9.79;80.00;101139.88;5158507;27;20023;-76
2022/05/08 03:34:46;;;;;;;12.47;5.07;;;;;;;9.81;78.95;101133.28;5158538;27;20055;-76
2022/05/08 03:37:12;;;;;;;14.43;4.78;;;;;;;9.73;78.94;101141.44;5139998;27;20087;-76
2022/05/08 03:39:37;;;;;;;13.87;4.63;;;;;;;9.73;78.61;101142.28;5158475;27;20462;-76
2022/05/08 03:42:02;;;;;;;10.17;4.17;;;;;;;9.68;78.23;101141.97;5158304;27;20228;-77
2022/05/08 03:44:28;;;;;;;10.35;4.80;;;;;;;9.61;78.36;101143.72;5158357;27;20109;-76
2022/05/08 03:46:53;;;;;;;7.87;3.90;;;;;;;9.64;78.58;101146.06;5158457;27;20118;-76
2022/05/08 03:49:18;;;;;;;12.00;4.50;;;;;;;9.57;78.74;101142.41;5156706;27;20030;-76
2022/05/08 03:51:44;;;;;;;9.50;4.47;;;;;;;9.59;78.79;101153.00;5157641;27;20031;-77
2022/05/08 03:54:09;;;;;;;10.87;4.33;;;;;;;9.53;79.08;101143.78;5157885;27;20139;-77
2022/05/08 03:56:35;;;;;;;10.70;4.72;;;;;;;9.52;79.36;101147.50;5157797;27;20537;-77
2022/05/08 03:59:00;;;;;;;12.02;4.65;;;;;;;9.43;79.08;101140.50;5157746;27;20031;-77
2022/05/08 04:01:26;;;;;;;13.03;5.97;;;;;;;9.40;79.95;101133.63;5157283;27;20042;-77
2022/05/08 04:03:52;;;;;;;10.38;4.43;;;;;;;9.43;79.05;101134.28;5157210;27;20114;-77
2022/05/08 04:06:17;;;;;;;10.83;4.47;;;;;;;9.39;78.84;101139.19;5157326;27;20054;-76
2022/05/08 04:08:42;;;;;;;11.07;4.70;;;;;;;9.39;79.15;101145.41;5157343;27;20031;-76
2022/05/08 04:11:08;;;;;;;10.73;4.63;;;;;;;9.42;78.78;101151.44;5157264;27;20027;-76
2022/05/08 04:13:33;;;;;;;11.40;5.10;;;;;;;9.41;79.08;101150.63;5157147;27;20284;-76
2022/05/08 04:16:17;;;;;;;11.33;4.97;;;;;;;9.35;79.43;101157.53;5157967;27;20030;-77
2022/05/08 04:18:43;;;;;;;11.48;4.25;;;;;;;9.36;79.21;101156.53;5157532;27;20046;-77
2022/05/08 04:21:09;;;;;;;12.43;5.25;;;;;;;9.38;79.40;101159.03;5157514;27;20529;-76
2022/05/08 04:26:18;;;;;;;11.68;4.47;;;;;;;9.37;78.82;101163.56;5157487;27;20100;-77
2022/05/08 04:28:43;;;;;;;13.80;5.10;;;;;;;9.35;78.97;101170.16;5157249;27;20035;-77
2022/05/08 04:31:08;;;;;;;15.27;4.77;;;;;;;9.32;79.22;101167.81;5157584;27;20049;-77
2022/05/08 04:33:33;;;;;;;12.17;5.13;;;;;;;9.33;79.28;101162.25;5157206;27;20034;-77
2022/05/08 04:35:59;;;;;;;13.47;6.20;;;;;;;9.23;77.90;101164.34;5158561;27;20513;-76
2022/05/08 04:38:24;;;;;;;10.67;4.17;;;;;;;9.20;75.58;101170.06;5159072;27;20090;-77
2022/05/08 04:40:49;;;;;;;10.90;4.00;;;;;;;9.15;75.21;101167.06;5156939;27;20053;-77
2022/05/08 04:43:15;;;;;;;8.77;3.57;;;;;;;9.16;74.03;101173.28;5157537;27;20040;-77
2022/05/08 04:45:40;;;;;;;10.87;3.93;;;;;;;9.19;73.30;101175.63;5157007;27;20502;-76
2022/05/08 04:48:05;;;;;;;7.13;2.80;;;;;;;9.08;73.57;101181.44;5157176;27;20035;-76
2022/05/08 04:50:31;;;;;;;7.35;2.78;;;;;;;9.04;74.34;101186.31;5156745;27;20070;-75
2022/05/08 04:52:56;;;;;;;11.25;3.25;;;;;;;9.05;74.66;101182.59;5138978;27;20027;-75
2022/05/08 04:55:21;;;;;;;8.27;2.90;;;;;;;9.05;74.57;101185.28;5156858;27;20030;-75
2022/05/08 04:57:47;;;;;;;9.07;2.73;;;;;;;9.03;73.74;101192.69;5156731;27;20117;-76
2022/05/08 05:00:13;;;;;;;8.67;3.00;;;;;;;9.12;73.55;101194.34;5156496;27;20038;-76
2022/05/08 05:02:38;;;;;;;9.82;2.42;;;;;;;9.11;74.50;101200.72;5156309;27;20046;-76
2022/05/08 05:05:06;;;;;;;5.27;2.20;;;;;;;9.19;74.04;101199.84;5156588;27;20039;-76
2022/05/08 05:07:32;;;;;;;10.82;2.72;;;;;;;9.06;74.23;101200.41;5155904;27;20053;-76
2022/05/08 05:09:57;;;;;;;8.20;3.10;;;;;;;9.04;74.46;101202.44;5137613;27;20113;-76
2022/05/08 05:12:23;;;;;;;7.93;2.67;;;;;;;8.98;74.19;101200.44;5137526;27;20025;-76
2022/05/08 05:14:48;;;;;;;7.63;2.03;;;;;;;8.94;74.50;101208.03;5156452;27;20053;-76
2022/05/08 05:17:13;;;;;;;8.40;3.33;;;;;;;8.99;74.76;101211.03;5156113;27;20034;-75
2022/05/08 05:19:39;;;;;;;11.43;2.47;;;;;;;8.97;74.82;101212.19;5155726;27;20035;-76
2022/05/08 05:22:05;;;;;;;10.83;2.30;;;;;;;8.89;75.21;101210.41;5155995;27;20484;-74
2022/05/08 05:24:30;;;;;;;6.43;2.20;;;;;;;8.91;75.67;101211.06;5155704;27;20058;-75
2022/05/08 05:26:56;;;;;;;8.23;2.28;;;;;;;8.92;75.71;101220.81;5156117;27;20066;-75
2022/05/08 05:29:21;;;;;;;10.70;2.20;;;;;;;8.88;75.94;101216.78;5156029;27;20037;-75
2022/05/08 05:31:46;;;;;;;7.17;2.47;;;;;;;8.87;75.70;101212.44;5155682;27;20037;-75
2022/05/08 05:34:12;;;;;;;7.70;2.20;;;;;;;8.75;75.94;101218.38;5155193;27;20030;-75
2022/05/08 05:36:37;;;;;;;7.28;1.98;;;;;;;8.73;76.30;101223.91;5155531;27;20023;-75
2022/05/08 05:39:03;;;;;;;9.90;2.53;;;;;;;8.94;76.32;101223.34;5155429;27;20507;-75
2022/05/08 05:41:28;;;;;;;9.90;1.93;;;;;;;8.84;76.17;101217.31;5137103;27;20255;-75
2022/05/08 05:43:54;;;;;;;5.80;1.80;;;;;;;8.84;76.46;101220.84;5155753;27;20362;-76
2022/05/08 05:49:04;;;;;;;6.25;2.85;;;;;;;8.92;76.10;101220.81;5155397;27;19984;-76
2022/05/08 05:51:29;;;;;;;11.27;2.42;;;;;;;8.77;76.06;101224.41;5155199;27;20046;-75
2022/05/08 05:53:55;;;;;;;14.17;3.13;;;;;;;8.87;76.30;101227.72;5155236;27;20045;-75
2022/05/08 05:56:20;;;;;;;12.63;3.53;;;;;;;8.77;76.55;101227.94;5155082;27;20035;-75
2022/05/08 05:58:45;;;;;;;9.93;2.73;;;;;;;8.89;76.03;101237.28;5155350;27;20481;-75
2022/05/08 06:01:11;;;;;;;9.90;2.03;;;;;;;8.92;75.85;101234.25;5155456;27;20054;-75
2022/05/08 06:03:38;;;;;;;18.33;3.13;;;;;;;9.00;75.42;101249.50;5154706;27;20121;-75
2022/05/08 06:06:03;;;;;;;10.35;2.95;;;;;;;9.08;75.22;101254.00;5155294;27;20026;-75
2022/05/08 06:08:29;;;;;;;10.07;2.60;;;;;;;9.02;75.58;101248.31;5137174;27;20480;-75
2022/05/08 06:10:54;;;;;;;8.18;2.47;;;;;;;8.99;75.11;101247.81;5155207;27;20035;-75
2022/05/08 06:13:21;;;;;;;12.03;2.67;;;;;;;9.00;75.46;101255.72;5154818;27;20079;-75
2022/05/08 06:15:47;;;;;;;7.88;2.70;;;;;;;8.94;75.17;101252.91;5155135;27;20019;-75
2022/05/08 06:18:12;;;;;;;9.88;2.83;;;;;;;9.10;75.37;101255.50;5155047;27;20041;-75
2022/05/08 06:20:38;;;;;;;15.40;4.33;;;;;;;9.00;75.33;101257.56;5155222;27;20465;-75
2022/05/08 06:23:03;;;;;;;;;;;;;;;9.11;75.23;101265.25;5155435;27;20106;-75
2022/05/08 06:25:29;;;;;;;10.13;2.38;;;;;;;9.09;74.55;101259.22;5155020;27;19965;-75
2022/05/08 06:27:54;;;;;;;5.50;2.47;;;;;;;9.18;75.05;101257.31;5155209;27;20528;-75
2022/05/08 06:30:19;;;;;;;8.00;2.40;;;;;;;9.20;74.70;101263.34;5154962;27;20043;-75
2022/05/08 06:32:45;;;;;;;8.57;2.90;;;;;;;9.25;74.46;101263.69;5155297;27;20544;-75
2022/05/08 06:35:10;;;;;;;6.30;2.20;;;;;;;9.37;74.33;101265.78;5155433;27;20256;-76
2022/05/08 06:37:35;;;;;;;7.83;2.97;;;;;;;9.32;73.20;101260.09;5155290;27;20023;-76
2022/05/08 06:40:00;;;;;;;7.17;2.50;;;;;;;9.13;74.23;101270.47;5157769;27;20169;-79
2022/05/08 06:42:26;;;;;;;9.00;1.97;;;;;;;9.16;74.52;101265.53;5161792;27;20030;-79
2022/05/08 06:44:51;;;;;;;7.95;2.40;;;;;;;9.19;74.99;101264.38;5146116;27;20018;-79
2022/05/08 06:47:16;;;;;;;7.47;2.27;;;;;;;9.27;74.08;101262.50;5163978;27;20041;-77
2022/05/08 06:49:42;;;;;;;10.03;2.30;;;;;;;9.28;73.81;101260.63;5160757;27;20022;-78
2022/05/08 06:52:07;;;;;;;7.57;2.30;;;;;;;9.29;73.73;101265.84;5162570;27;20061;-78
2022/05/08 06:54:32;;;;;;;10.23;2.37;;;;;;;9.41;73.78;101258.19;5163985;27;20031;-79
2022/05/08 06:56:59;;;;;;;9.47;2.33;;;;;;;9.38;73.29;101266.63;5162625;27;20280;-79
2022/05/08 07:02:11;;;;;;;12.27;2.15;;;;;;;9.44;73.04;101271.31;5161322;27;20029;-78
2022/05/08 07:04:37;;;;;;;11.30;2.30;;;;;;;9.62;nan;101276.41;5163100;27;20396;-79
2022/05/08 07:07:03;;;;;;;5.78;2.03;;;;;;;9.47;71.56;101280.88;5161882;27;20026;-78
2022/05/08 07:09:28;;;;;;;8.40;2.35;;;;;;;9.64;72.13;101279.75;5161278;27;20137;-77
2022/05/08 07:11:53;;;;;;;11.77;2.73;;;;;;;9.65;71.71;101278.75;5161569;27;20355;-78
2022/05/08 07:14:19;;;;;;;6.13;1.80;;;;;;;9.78;72.26;101286.22;5160809;27;20034;-78
2022/05/08 07:16:44;;;;;;;11.82;2.75;;;;;;;9.74;72.09;101285.75;5162954;27;20360;-78
2022/05/08 07:19:10;;;;;;;10.82;2.28;;;;;;;9.96;70.71;101284.91;5164032;27;20441;-78
2022/05/08 07:21:35;;;;;;;9.40;2.50;;;;;;;9.68;69.95;101291.81;5167727;27;20436;-79
2022/05/08 07:24:01;;;;;;;9.40;2.10;;;;;;;9.73;70.08;101289.44;5166182;27;20475;-78
2022/05/08 07:26:26;;;;;;;10.43;3.13;;;;;;;9.84;71.42;101288.22;5162987;27;20172;-78
2022/05/08 07:28:51;;;;;;;11.10;2.37;;;;;;;9.99;70.94;101294.50;5159927;27;20054;-79
2022/05/08 07:31:17;;;;;;;4.57;1.97;;;;;;;10.07;69.73;101297.94;5162915;27;20362;-78
2022/05/08 07:33:42;;;;;;;8.93;1.92;;;;;;;9.95;70.80;101293.16;5161169;27;20288;-78
2022/05/08 07:36:13;;;;;;;5.53;2.10;;;;;;;10.30;69.74;101294.44;5163048;27;20044;-79
2022/05/08 07:38:44;;;;;;;6.20;2.00;;;;;;;10.37;69.52;101290.00;5163819;27;20048;-78
2022/05/08 07:41:10;;;;;;;9.93;2.92;;;;;;;10.35;70.35;101300.13;5165499;27;20057;-78
2022/05/08 07:43:36;;;;;;;8.85;2.33;;;;;;;10.33;70.18;101297.59;5149246;27;20088;-79
2022/05/08 07:46:01;;;;;;;9.00;1.98;;;;;;;10.18;70.35;101309.31;5167792;27;20062;-80
2022/05/08 07:48:27;;;;;;;8.50;2.72;;;;;;;10.01;70.33;101311.31;5168554;27;20035;-78
2022/05/08 07:50:52;;;;;;;9.85;2.05;;;;;;;10.16;71.01;101309.50;5167874;27;20145;-79
2022/05/08 07:53:18;;;;;;;8.23;2.58;;;;;;;10.18;69.85;101317.41;5166912;27;20406;-81
2022/05/08 07:55:45;;;;;;;;;;;;;;;10.09;69.91;101320.16;5163690;27;20035;-79
2022/05/08 07:58:11;;;;;;;6.53;1.83;;;;;;;10.18;70.01;101320.09;5165175;27;19947;-79
2022/05/08 08:00:37;;;;;;;7.82;2.42;;;;;;;10.32;69.30;101322.03;5165580;27;20034;-80
2022/05/08 08:03:03;;;;;;;6.50;1.93;;;;;;;10.72;69.17;101318.97;5145257;27;20030;-79
2022/05/08 08:05:29;;;;;;;9.32;2.58;;;;;;;10.92;67.77;101323.81;5162154;27;20091;-79
2022/05/08 08:07:55;;;;;;;9.63;2.17;;;;;;;10.70;68.18;101315.63;5160895;27;20520;-79
2022/05/08 08:10:20;;;;;;;10.82;2.30;;;;;;;10.69;68.48;101313.94;5159954;27;20034;-78
2022/05/08 08:12:45;;;;;;;6.85;2.33;;;;;;;10.72;67.39;101323.53;5161812;27;20022;-79
2022/05/08 08:15:11;;;;;;;5.93;2.03;;;;;;;10.90;66.67;101325.88;5163096;27;20388;-79
2022/05/08 08:17:36;;;;;;;6.00;1.70;;;;;;;10.96;65.45;101338.59;5160616;27;20260;-78
2022/05/08 08:20:03;;;;;;;4.80;1.98;;;;;;;10.94;65.94;101333.38;5160143;27;20384;-78
2022/05/08 08:22:28;;;;;;;5.68;1.92;;;;;;;10.86;66.33;101335.34;5161101;27;20534;-78
2022/05/08 08:24:54;;;;;;;5.97;2.20;;;;;;;11.36;65.30;101327.31;5163977;27;20023;-78
2022/05/08 08:27:19;;;;;;;6.03;1.80;;;;;;;11.32;64.10;101333.28;5164181;27;20035;-77
2022/05/08 08:29:46;;;;;;;7.78;1.83;;;;;;;11.31;63.90;101334.31;5162143;27;20045;-78
2022/05/08 08:32:11;;;;;;;7.45;1.70;;;;;;;11.22;64.03;101335.44;5162523;27;20114;-78
2022/05/08 08:34:36;;;;;;;5.10;2.05;;;;;;;11.57;63.46;101331.94;5161608;27;20455;-78
2022/05/08 08:37:02;;;;;;;8.25;2.00;;;;;;;11.60;61.96;101328.03;5144011;27;20052;-78
2022/05/08 08:39:27;;;;;;;4.03;1.50;;;;;;;11.72;61.53;101337.31;5144832;27;20377;-78
2022/05/08 08:42:21;;;;;;;6.60;1.95;;;;;;;11.69;61.05;101329.59;5161977;27;20102;-78
2022/05/08 08:47:44;;;;;;;7.50;1.83;;;;;;;11.76;60.86;101339.47;5163492;27;20033;-79
2022/05/08 08:50:10;;;;;;;;;;;;;;;11.97;57.97;101330.56;5147001;27;20473;-80
2022/05/08 08:52:36;;;;;;;5.25;1.60;;;;;;;12.04;59.27;101336.03;5165627;27;19911;-78
2022/05/08 08:55:05;;;;;;;6.75;1.23;;;;;;;11.77;59.24;101337.63;5163013;27;20023;-78
2022/05/08 08:57:30;;;;;;;6.55;1.70;;;;;;;11.84;60.05;101341.22;5164144;27;20495;-78
2022/05/08 08:59:55;;;;;;;7.90;2.00;;;;;;;12.14;59.27;101341.97;5163090;27;20039;-78
2022/05/08 09:02:21;;;;;;;6.07;1.70;;;;;;;12.36;57.43;101340.09;5145379;27;20289;-79
2022/05/08 09:04:49;;;;;;;4.97;1.33;;;;;;;12.11;57.60;101342.34;5164991;27;20321;-78
2022/05/08 09:07:33;;;;;;;7.15;1.50;;;;;;;12.37;57.29;101347.16;5145530;27;20031;-78
2022/05/08 09:10:08;;;;;;;7.75;1.63;;;;;;;12.27;56.71;101344.78;5162476;27;20023;-78
2022/05/08 09:12:33;;;;;;;4.45;1.45;;;;;;;12.34;56.32;101340.28;5160699;27;20030;-78
2022/05/08 09:14:59;;;;;;;4.47;1.15;;;;;;;12.26;55.46;101334.16;5163911;27;20023;-80
2022/05/08 09:17:41;;;;;;;7.40;2.20;;;;;;;12.20;56.05;101340.34;5163015;27;20037;-79
2022/05/08 09:20:22;;;;;;;7.55;1.38;;;;;;;11.98;55.30;101340.34;5162263;27;20688;-78
2022/05/08 09:23:00;;;;;;;5.15;1.20;;;;;;;11.93;56.55;101334.69;5162057;27;20034;-78
2022/05/08 09:25:45;;;;;;;4.18;0.90;;;;;;;12.15;55.44;101343.63;5161631;27;20031;-78
2022/05/08 09:28:25;;;;;;;4.85;1.20;;;;;;;11.87;56.10;101343.53;5162711;27;20266;-78
2022/05/08 09:31:11;;;;;;;3.95;1.40;;;;;;;11.82;56.04;101338.69;5162119;27;20395;-80
2022/05/08 09:33:48;;;;;;;5.55;1.10;;;;;;;11.95;54.85;101339.91;5139536;27;20377;-77
2022/05/08 09:36:21;;;;;;;3.97;1.38;;;;;;;11.91;55.55;101339.44;5140385;27;20027;-77
2022/05/08 09:38:49;;;;;;;5.53;1.33;;;;;;;11.91;55.30;101341.28;5160640;27;20026;-77
2022/05/08 09:41:35;;;;;;;6.63;1.30;;;;;;;11.87;55.00;101340.84;5160712;27;20483;-77
2022/05/08 09:44:11;;;;;;;6.90;1.63;;;;;;;11.94;54.73;101336.34;5140356;27;20030;-77
2022/05/08 09:46:44;;;;;;;3.08;0.95;;;;;;;11.98;55.32;101339.50;5157961;27;20364;-77
2022/05/08 09:49:18;;;;;;;3.22;1.23;;;;;;;12.13;54.94;101334.88;5157951;27;20069;-77
2022/05/08 09:51:45;;;;;;;3.70;1.27;;;;;;;12.15;53.30;101332.84;5156996;27;20031;-78
2022/05/08 09:54:13;;;;;;;4.10;0.93;;;;;;;11.90;55.39;101326.97;5139558;27;20469;-77
2022/05/08 09:56:38;;;;;;;9.60;1.40;;;;;;;12.13;54.16;101337.59;5157236;27;20045;-77
2022/05/08 09:59:07;;;;;;;4.82;1.00;;;;;;;12.43;53.23;101332.88;5159043;27;20027;-78
2022/05/08 10:01:33;;;;;;;4.40;1.02;;;;;;;12.54;52.93;101331.53;5157227;27;20469;-77
2022/05/08 10:03:58;;;;;;;3.90;1.13;;;;;;;12.20;53.37;101335.78;5139487;27;20033;-77
2022/05/08 10:06:24;;;;;;;4.60;1.07;;;;;;;12.22;54.27;101339.13;5157170;27;20042;-77
2022/05/08 10:08:51;;;;;;;6.70;1.50;;;;;;;12.38;54.20;101327.19;5157734;27;20288;-77
2022/05/08 10:14:11;;;;;;;5.38;1.63;;;;;;;12.67;53.64;101337.88;5157298;27;20417;-77
2022/05/08 10:16:44;;;;;;;5.25;1.25;;;;;;;12.43;52.91;101341.81;5158844;27;20046;-78
2022/05/08 10:19:18;;;;;;;4.50;1.42;;;;;;;12.16;54.56;101335.34;5157944;27;20029;-77
2022/05/08 10:22:14;;;;;;;6.60;2.40;;;;;;;12.79;52.17;101332.75;5158445;27;20485;-78
2022/05/08 10:24:48;;;;;;;5.13;1.10;;;;;;;13.18;50.94;101333.03;5140318;27;20209;-77
2022/05/08 10:27:22;;;;;;;2.85;1.20;;;;;;;13.63;48.18;101333.44;5139130;27;20054;-77
2022/05/08 10:29:48;;;;;;;5.88;1.23;;;;;;;13.91;48.12;101336.03;5157882;27;20031;-78
2022/05/08 10:32:33;;;;;;;5.60;1.20;;;;;;;13.73;48.57;101333.06;5159492;27;20078;-78
2022/05/08 10:35:07;;;;;;;3.47;1.35;;;;;;;13.92;48.96;101326.03;5157811;27;20050;-78
2022/05/08 10:37:32;;;;;;;10.82;2.35;;;;;;;13.92;49.95;101323.31;5157563;27;20109;-77
2022/05/08 10:39:58;;;;;;;6.60;1.00;;;;;;;14.11;44.70;101328.78;5139934;27;20086;-77
2022/05/08 10:42:23;;;;;;;2.75;0.82;;;;;;;14.28;44.62;101322.97;5139464;27;20035;-78
2022/05/08 10:44:49;;;;;;;2.13;0.90;;;;;;;14.52;42.15;101320.47;5160905;27;20034;-78
2022/05/08 10:47:41;;;;;;;3.22;1.02;;;;;;;14.69;43.63;101317.38;5159190;27;20294;-77
2022/05/08 10:50:08;;;;;;;4.53;1.10;;;;;;;14.84;40.59;101316.09;5158036;27;20041;-78
2022/05/08 10:52:39;;;;;;;2.90;0.98;;;;;;;14.60;42.49;101319.44;5159168;27;20048;-77
2022/05/08 10:55:08;;;;;;;3.20;0.88;;;;;;;14.65;41.72;101308.81;5140800;27;20027;-77
2022/05/08 10:57:37;;;;;;;5.30;0.98;;;;;;;14.61;39.40;101315.69;5157615;27;20050;-76
2022/05/08 11:00:05;;;;;;;3.83;0.80;;;;;;;15.03;41.93;101310.84;5160438;27;20050;-76
2022/05/08 11:02:47;;;;;;;4.55;1.10;;;;;;;15.02;42.06;101314.59;5160920;27;20038;-77
2022/05/08 11:05:19;;;;;;;3.85;1.00;;;;;;;15.19;42.98;101307.66;5161150;27;20083;-78
2022/05/08 11:07:53;;;;;;;2.83;0.95;;;;;;;15.19;42.67;101300.34;5161801;27;20019;-77
2022/05/08 11:10:23;;;;;;;6.57;1.35;;;;;;;15.58;43.26;101298.56;5143052;27;20031;-76
2022/05/08 11:12:59;;;;;;;3.95;1.23;;;;;;;15.49;43.40;101303.38;5161055;27;20027;-77
2022/05/08 11:15:26;;;;;;;3.92;1.00;;;;;;;15.51;44.43;101295.84;5159201;27;20038;-77
2022/05/08 11:18:07;;;;;;;4.55;1.30;;;;;;;15.27;44.44;101294.66;5158654;27;20392;-76
2022/05/08 11:20:33;;;;;;;4.45;1.13;;;;;;;15.45;44.42;101304.84;5159671;27;20034;-77
2022/05/08 11:22:59;;;;;;;6.18;1.15;;;;;;;15.39;44.69;101296.75;5159374;27;20031;-77
2022/05/08 11:25:24;;;;;;;3.95;1.30;;;;;;;15.48;44.58;101290.00;5160763;27;20031;-78
2022/05/08 11:27:51;;;;;;;2.80;1.00;;;;;;;15.88;45.13;101288.78;5163155;27;20043;-79
2022/05/08 11:30:26;;;;;;;6.75;1.60;;;;;;;16.10;45.10;101286.53;5163044;27;20034;-78
2022/05/08 11:38:20;;;;;;;4.53;1.13;;;;;;;15.92;44.41;101278.31;5164975;27;20038;-78
2022/05/08 11:40:45;;;;;;;4.53;1.25;;;;;;;16.00;44.41;101283.47;5165347;27;20034;-78
2022/05/08 11:43:31;;;;;;;;;;;;;;;16.08;43.70;101272.34;5163135;27;20039;-78
2022/05/08 11:45:58;;;;;;;4.18;1.20;;;;;;;16.17;43.83;101276.44;5165134;27;19952;-79
2022/05/08 11:48:31;;;;;;;7.20;1.40;;;;;;;16.57;43.68;101278.81;5169400;27;20030;-80
2022/05/08 11:50:57;;;;;;;3.63;1.27;;;;;;;16.15;44.83;101270.38;5167666;27;20102;-79
2022/05/08 11:53:22;;;;;;;4.85;1.30;;;;;;;16.24;44.48;101273.66;5168211;27;20050;-80